Terminal Aerodrome Forecast
Issued by NWS Charleston, WV

Current Version | Previous Version | Graphics & Text | Print | Product List | Glossary On
Versions: 1 2 3 4 5 6 7 8 9 10 11 12 13 14 15 16 17 18 19 20 21 22 23 24 25 26
180
FTUS41 KRLX 160255 AAA
TAFCRW
TAF AMD
KCRW 160255Z 1603/1624 00000KT P6SM SCT040
     FM160400 00000KT 3SM BR SCT035
     FM160500 00000KT 1 1/2SM BR FEW035
     FM160600 00000KT 1/4SM FG OVC001
     FM161230 00000KT 4SM BR SCT002
     FM161300 00000KT P6SM SCT035=

USA.gov is the U.S. government's official web portal to all federal, state and local government web resources and services.